Time;durP1;ratioP1;P1;durP2;ratioP2;P2;SDS_P1;SDS_P2;PMS_P1;PMS_P2;Temp;Humidity;BMP_temperature;BMP_pressure;BME280_temperature;BME280_humidity;BME280_pressure;Samples;Min_cycle;Max_cycle;Signal;HPM_P1;HPM_P2
2022/10/26 00:02:16;;;;;;;14.10;11.90;;;11.40;99.90;;;;;;5035020;28;20658;-77
2022/10/26 00:04:41;;;;;;;11.10;10.30;;;11.50;99.90;;;;;;5034713;28;20257;-77
2022/10/26 00:07:07;;;;;;;17.77;16.70;;;11.50;99.90;;;;;;5053359;28;20757;-77
2022/10/26 00:09:33;;;;;;;22.87;21.20;;;11.50;99.90;;;;;;5039732;28;20178;-77
2022/10/26 00:11:58;;;;;;;22.07;20.67;;;11.50;99.90;;;;;;5035040;28;20201;-77
2022/10/26 00:14:25;;;;;;;31.37;29.17;;;11.50;99.90;;;;;;5034783;28;20209;-77
2022/10/26 00:16:51;;;;;;;36.97;34.60;;;11.50;99.90;;;;;;5052976;28;20252;-79
2022/10/26 00:19:17;;;;;;;39.53;37.40;;;11.40;99.90;;;;;;5035642;28;20182;-78
2022/10/26 00:21:43;;;;;;;19.70;18.07;;;11.50;99.90;;;;;;5036490;28;20205;-80
2022/10/26 00:24:10;;;;;;;14.03;12.03;;;11.50;99.90;;;;;;5036881;28;20182;-80
2022/10/26 00:26:36;;;;;;;11.17;10.27;;;11.50;99.90;;;;;;5054557;28;20228;-80
2022/10/26 00:29:03;;;;;;;11.87;10.33;;;11.50;99.90;;;;;;5037279;28;20266;-80
2022/10/26 00:31:28;;;;;;;8.33;7.47;;;11.60;99.90;;;;;;5037080;28;20187;-78
2022/10/26 00:33:55;;;;;;;12.60;11.60;;;11.60;99.90;;;;;;5054476;28;20194;-77
2022/10/26 00:36:22;;;;;;;26.27;24.63;;;11.50;99.90;;;;;;5058333;28;20572;-78
2022/10/26 00:38:50;;;;;;;28.13;26.27;;;11.50;99.90;;;;;;5062750;28;20784;-77
2022/10/26 00:41:18;;;;;;;18.07;16.83;;;11.60;99.90;;;;;;5073139;28;20171;-77
2022/10/26 00:43:44;;;;;;;13.03;12.33;;;11.60;99.90;;;;;;5056109;28;20196;-78
2022/10/26 00:46:15;;;;;;;11.50;10.33;;;11.60;99.90;;;;;;5039663;28;20214;-78
2022/10/26 00:48:45;;;;;;;9.57;8.87;;;11.60;99.90;;;;;;5039846;28;20217;-78
2022/10/26 00:51:32;;;;;;;15.00;13.93;;;11.60;99.90;;;;;;5057512;28;20561;-78
2022/10/26 00:54:01;;;;;;;35.97;34.00;;;11.60;99.90;;;;;;5039029;28;20233;-77
2022/10/26 00:56:29;;;;;;;25.57;24.03;;;11.60;99.90;;;;;;5038958;28;20594;-78
2022/10/26 00:59:01;;;;;;;23.90;22.17;;;11.70;99.90;;;;;;5038946;28;20615;-78
2022/10/26 01:01:27;;;;;;;54.23;50.70;;;11.70;99.90;;;;;;5056651;28;20251;-78
2022/10/26 01:03:54;;;;;;;78.80;74.37;;;11.70;99.90;;;;;;5038955;28;20187;-78
2022/10/26 01:06:20;;;;;;;113.00;106.60;;;11.70;99.90;;;;;;5057105;28;20590;-78
2022/10/26 01:08:47;;;;;;;116.07;110.10;;;11.70;99.90;;;;;;5054944;28;20848;-78
2022/10/26 01:11:13;;;;;;;124.67;118.23;;;11.70;99.90;;;;;;5038285;28;20182;-77
2022/10/26 01:13:42;;;;;;;123.93;117.23;;;11.70;99.90;;;;;;5039377;28;20881;-79
2022/10/26 01:16:33;;;;;;;105.30;99.10;;;11.70;99.90;;;;;;5039649;28;20251;-78
2022/10/26 01:19:57;;;;;;;87.20;82.30;;;11.80;99.90;;;;;;5038997;28;20186;-79
2022/10/26 01:22:35;;;;;;;106.60;100.53;;;11.80;99.90;;;;;;5039981;28;20273;-78
2022/10/26 01:25:30;;;;;;;97.60;92.43;;;11.80;99.90;;;;;;5039749;28;20196;-79
2022/10/26 01:27:57;;;;;;;104.93;98.80;;;11.80;99.90;;;;;;5037124;28;20665;-78
2022/10/26 01:30:31;;;;;;;105.77;100.27;;;11.80;99.90;;;;;;5040137;28;20720;-78
2022/10/26 01:33:09;;;;;;;110.27;104.03;;;11.80;99.90;;;;;;5057178;28;20182;-78
2022/10/26 01:35:49;;;;;;;101.47;96.30;;;11.80;99.90;;;;;;5039269;28;20198;-77
2022/10/26 01:38:39;;;;;;;100.50;95.37;;;11.80;99.90;;;;;;5038490;28;20191;-78
2022/10/26 01:41:13;;;;;;;73.73;69.57;;;11.80;99.90;;;;;;5057673;28;20178;-77
2022/10/26 01:43:43;;;;;;;55.63;52.70;;;11.80;99.90;;;;;;5064015;28;20224;-77
2022/10/26 01:46:12;;;;;;;65.53;61.40;;;11.70;99.90;;;;;;5043994;28;20230;-78
2022/10/26 01:48:40;;;;;;;61.20;57.73;;;11.70;99.90;;;;;;5018548;28;20226;-78
2022/10/26 01:51:08;;;;;;;34.40;32.37;;;11.70;99.90;;;;;;5037460;28;20193;-78
2022/10/26 01:53:34;;;;;;;21.07;19.33;;;11.80;99.90;;;;;;5019043;28;20215;-77
2022/10/26 01:56:01;;;;;;;16.20;14.87;;;11.80;99.90;;;;;;5054609;28;20194;-78
2022/10/26 01:58:51;;;;;;;13.67;12.67;;;11.80;99.90;;;;;;5059482;28;20689;-78
2022/10/26 02:01:47;;;;;;;15.37;14.47;;;11.80;99.90;;;;;;5039770;28;20700;-78
2022/10/26 02:04:21;;;;;;;15.17;13.83;;;11.80;99.90;;;;;;5055998;28;20208;-78
2022/10/26 02:07:08;;;;;;;51.47;48.47;;;11.70;99.90;;;;;;5037474;28;20194;-78
2022/10/26 02:10:07;;;;;;;60.10;56.93;;;11.80;99.90;;;;;;5058876;28;20188;-77
2022/10/26 02:12:38;;;;;;;67.63;64.07;;;11.80;99.90;;;;;;5045373;28;20354;-77
2022/10/26 02:15:18;;;;;;;72.07;68.00;;;11.80;99.90;;;;;;5044219;28;20230;-77
2022/10/26 02:18:27;;;;;;;70.90;66.73;;;11.80;99.90;;;;;;5036523;28;20198;-78
2022/10/26 02:20:56;;;;;;;68.67;64.90;;;11.80;99.90;;;;;;5036433;28;20257;-78
2022/10/26 02:23:25;;;;;;;168.03;158.47;;;11.70;99.90;;;;;;5045739;28;20660;-77
2022/10/26 02:25:56;;;;;;;63.40;60.17;;;11.70;99.90;;;;;;5040301;28;20303;-77
2022/10/26 02:28:28;;;;;;;59.57;56.30;;;11.70;99.90;;;;;;5036446;28;20231;-78
2022/10/26 02:30:56;;;;;;;46.20;42.53;;;11.70;99.90;;;;;;5036890;28;20272;-78
2022/10/26 02:33:25;;;;;;;42.53;40.03;;;11.60;99.90;;;;;;5053928;28;20202;-78
2022/10/26 02:35:53;;;;;;;52.47;49.43;;;11.60;99.90;;;;;;5054384;28;20198;-78
2022/10/26 02:38:21;;;;;;;41.67;39.23;;;11.60;99.90;;;;;;5036108;28;20184;-77
2022/10/26 02:40:51;;;;;;;27.43;25.77;;;11.60;99.90;;;;;;5054032;28;20274;-78
2022/10/26 02:43:20;;;;;;;21.20;19.80;;;11.50;99.90;;;;;;5036252;28;20201;-78
2022/10/26 02:45:52;;;;;;;16.17;15.10;;;11.50;99.90;;;;;;5057236;28;20208;-77
2022/10/26 02:48:19;;;;;;;12.53;11.43;;;11.40;99.90;;;;;;5062459;28;20189;-77
2022/10/26 02:51:00;;;;;;;15.47;13.37;;;11.50;99.90;;;;;;5063050;28;20655;-77
2022/10/26 02:53:39;;;;;;;10.47;9.20;;;11.50;99.90;;;;;;5037690;28;20217;-78
2022/10/26 02:56:24;;;;;;;11.23;10.33;;;11.50;99.90;;;;;;5072974;28;20186;-77
2022/10/26 02:58:56;;;;;;;8.07;7.47;;;11.50;99.90;;;;;;5047298;28;20565;-78
2022/10/26 03:01:22;;;;;;;10.03;8.67;;;11.40;99.90;;;;;;5055519;28;20195;-78
2022/10/26 03:03:47;;;;;;;15.47;14.37;;;11.40;99.90;;;;;;5047018;28;20174;-77
2022/10/26 03:06:21;;;;;;;17.37;16.37;;;11.40;99.90;;;;;;5049524;28;20198;-77
2022/10/26 03:08:47;;;;;;;21.90;20.40;;;11.40;99.90;;;;;;5039594;28;20662;-77
2022/10/26 03:11:13;;;;;;;23.93;22.03;;;11.40;99.90;;;;;;5036013;28;20235;-77
2022/10/26 03:13:39;;;;;;;23.43;22.13;;;11.40;99.90;;;;;;5055784;28;20214;-78
2022/10/26 03:16:05;;;;;;;19.50;18.07;;;11.40;99.90;;;;;;5040256;28;20202;-77
2022/10/26 03:18:31;;;;;;;24.23;22.23;;;11.40;99.90;;;;;;5035966;28;20616;-78
2022/10/26 03:20:56;;;;;;;14.17;13.27;;;11.30;99.90;;;;;;5059950;28;20189;-76
2022/10/26 03:23:22;;;;;;;22.80;21.10;;;11.30;99.90;;;;;;5045542;28;20189;-78
2022/10/26 03:25:48;;;;;;;30.77;28.67;;;11.30;99.90;;;;;;5073838;28;20213;-76
2022/10/26 03:28:14;;;;;;;30.17;28.20;;;11.40;99.90;;;;;;5074060;28;20193;-76
2022/10/26 03:30:39;;;;;;;23.17;21.47;;;11.40;99.90;;;;;;5049699;28;20209;-77
2022/10/26 03:33:05;;;;;;;21.23;19.60;;;11.40;99.90;;;;;;5038804;28;20192;-77
2022/10/26 03:35:31;;;;;;;25.20;23.77;;;11.40;99.90;;;;;;5045241;28;20177;-77
2022/10/26 03:37:57;;;;;;;26.17;24.73;;;11.40;99.90;;;;;;5038510;28;20193;-77
2022/10/26 03:40:23;;;;;;;31.90;29.93;;;11.50;99.90;;;;;;5035112;28;20189;-78
2022/10/26 03:42:48;;;;;;;36.47;33.50;;;11.50;99.90;;;;;;5053425;28;20230;-77
2022/10/26 03:45:14;;;;;;;36.13;33.90;;;11.50;99.90;;;;;;5034987;28;20264;-77
2022/10/26 03:47:44;;;;;;;50.40;47.60;;;11.60;99.90;;;;;;5053107;28;20206;-77
2022/10/26 03:50:11;;;;;;;69.77;65.20;;;11.60;99.90;;;;;;5035228;28;20186;-77
2022/10/26 03:52:37;;;;;;;89.23;84.53;;;11.70;99.90;;;;;;5035568;28;20178;-77
2022/10/26 03:55:04;;;;;;;90.33;85.37;;;11.60;99.90;;;;;;5052764;28;20270;-77
2022/10/26 03:57:29;;;;;;;99.30;92.83;;;11.60;99.90;;;;;;5035298;28;20285;-77
2022/10/26 03:59:55;;;;;;;90.97;86.17;;;11.60;99.90;;;;;;5034855;28;20311;-77
2022/10/26 04:02:21;;;;;;;66.17;62.40;;;11.70;99.90;;;;;;5035012;28;20186;-77
2022/10/26 04:04:47;;;;;;;73.53;69.17;;;11.70;99.90;;;;;;5036888;28;20688;-78
2022/10/26 04:07:12;;;;;;;96.03;90.97;;;11.70;99.90;;;;;;5034470;28;20206;-71
2022/10/26 04:09:38;;;;;;;102.03;96.20;;;11.60;99.90;;;;;;5055569;28;20174;-71
2022/10/26 04:12:04;;;;;;;75.57;71.37;;;11.70;99.90;;;;;;5053291;28;20554;-70
2022/10/26 04:14:30;;;;;;;30.77;28.67;;;11.60;99.90;;;;;;5054611;28;20213;-71
2022/10/26 04:16:56;;;;;;;19.13;17.93;;;11.60;99.90;;;;;;5036755;28;20570;-71
2022/10/26 04:19:21;;;;;;;9.53;8.73;;;11.60;99.90;;;;;;5054885;28;20681;-70
2022/10/26 04:21:49;;;;;;;8.40;7.33;;;11.60;99.90;;;;;;5037295;28;20178;-70
2022/10/26 04:24:15;;;;;;;8.03;7.43;;;11.60;99.90;;;;;;5037161;28;20247;-71
2022/10/26 04:26:41;;;;;;;13.63;10.53;;;11.50;99.90;;;;;;5036432;28;20218;-70
2022/10/26 04:29:08;;;;;;;16.27;14.90;;;11.50;99.90;;;;;;5036499;28;20182;-71
2022/10/26 04:31:33;;;;;;;21.17;18.97;;;11.40;99.90;;;;;;5054807;28;20185;-70
2022/10/26 04:33:59;;;;;;;20.63;18.83;;;11.40;99.90;;;;;;5054509;28;20597;-70
2022/10/26 04:36:25;;;;;;;25.13;23.33;;;11.40;99.90;;;;;;5054554;28;20205;-70
2022/10/26 04:38:51;;;;;;;27.23;25.43;;;11.40;99.90;;;;;;5036277;28;20265;-70
2022/10/26 04:41:16;;;;;;;39.37;36.27;;;11.40;99.90;;;;;;5054136;28;20619;-72
2022/10/26 04:43:42;;;;;;;46.00;43.60;;;11.40;99.90;;;;;;5054392;28;20190;-70
2022/10/26 04:46:08;;;;;;;55.27;51.97;;;11.50;99.90;;;;;;5054358;28;20199;-70
2022/10/26 04:48:34;;;;;;;40.57;37.80;;;11.50;99.90;;;;;;5054556;28;20209;-69
2022/10/26 04:51:00;;;;;;;44.27;41.77;;;11.50;99.90;;;;;;5037074;28;20186;-70
2022/10/26 04:53:26;;;;;;;37.67;35.43;;;11.50;99.90;;;;;;5053906;28;20318;-68
2022/10/26 04:55:56;;;;;;;60.47;57.17;;;11.50;99.90;;;;;;5054045;28;20202;-69
2022/10/26 04:58:22;;;;;;;104.73;98.93;;;11.60;99.90;;;;;;5036286;28;20189;-69
2022/10/26 05:00:48;;;;;;;35.50;33.50;;;11.60;99.90;;;;;;5053733;28;20177;-69
2022/10/26 05:03:14;;;;;;;12.33;11.43;;;11.70;99.90;;;;;;5054009;28;20702;-69
2022/10/26 05:05:39;;;;;;;12.20;10.83;;;11.70;99.90;;;;;;5053810;28;20178;-70
2022/10/26 05:08:05;;;;;;;18.23;16.93;;;11.60;99.90;;;;;;5038892;28;20174;-71
2022/10/26 05:10:32;;;;;;;20.67;18.57;;;11.50;99.90;;;;;;5060617;28;20256;-70
2022/10/26 05:12:59;;;;;;;23.53;21.73;;;11.60;99.90;;;;;;5036871;28;20189;-70
2022/10/26 05:15:26;;;;;;;29.10;27.20;;;11.60;99.90;;;;;;5053807;28;20578;-70
2022/10/26 05:18:01;;;;;;;46.30;43.60;;;11.60;99.90;;;;;;5053258;28;20178;-70
2022/10/26 05:20:30;;;;;;;37.87;35.40;;;11.70;99.90;;;;;;5051269;28;20194;-70
2022/10/26 05:23:04;;;;;;;36.57;34.30;;;11.70;99.90;;;;;;5051833;28;20217;-70
2022/10/26 05:25:32;;;;;;;38.00;35.90;;;11.70;99.90;;;;;;5053327;28;20182;-70
2022/10/26 05:28:00;;;;;;;15.47;14.37;;;11.70;99.90;;;;;;5053096;28;20179;-70
2022/10/26 05:30:26;;;;;;;13.63;12.53;;;11.70;99.90;;;;;;5053678;28;20536;-70
2022/10/26 05:32:56;;;;;;;15.30;10.73;;;11.70;99.90;;;;;;5035638;28;20178;-70
2022/10/26 05:35:22;;;;;;;15.47;14.17;;;11.70;99.90;;;;;;5052642;28;20263;-68
2022/10/26 05:37:48;;;;;;;22.90;21.33;;;11.70;99.90;;;;;;5032840;28;20195;-69
2022/10/26 05:40:15;;;;;;;37.17;35.00;;;11.80;99.90;;;;;;5032917;28;20183;-69
2022/10/26 05:42:41;;;;;;;37.97;35.67;;;11.70;99.90;;;;;;5047578;28;20236;-69
2022/10/26 05:45:07;;;;;;;33.87;31.17;;;11.80;99.90;;;;;;5052919;28;20213;-70
2022/10/26 05:47:41;;;;;;;24.83;23.07;;;11.80;99.90;;;;;;5043629;28;20290;-70
2022/10/26 05:50:07;;;;;;;21.47;20.10;;;11.80;99.90;;;;;;5055739;28;20182;-70
2022/10/26 05:52:41;;;;;;;16.47;15.07;;;11.80;99.90;;;;;;5035078;28;20546;-71
2022/10/26 05:55:08;;;;;;;18.70;17.23;;;11.80;99.90;;;;;;5052733;28;20217;-70
2022/10/26 05:57:35;;;;;;;18.53;16.90;;;11.80;99.90;;;;;;5052827;28;20198;-72
2022/10/26 06:00:02;;;;;;;14.63;13.30;;;11.80;99.90;;;;;;5052894;28;20178;-71
2022/10/26 06:02:45;;;;;;;16.67;15.37;;;11.80;99.90;;;;;;5052397;28;20260;-69
2022/10/26 06:05:19;;;;;;;17.60;16.30;;;11.80;99.90;;;;;;5034920;28;20217;-70
2022/10/26 06:07:45;;;;;;;14.83;13.83;;;11.90;99.90;;;;;;5051983;28;20717;-70
2022/10/26 06:10:11;;;;;;;14.47;13.27;;;11.90;99.90;;;;;;5052441;28;20182;-70
2022/10/26 06:12:37;;;;;;;12.10;11.10;;;11.90;99.90;;;;;;5036630;28;20186;-70
2022/10/26 06:15:04;;;;;;;17.73;12.40;;;11.90;99.90;;;;;;5052058;28;20666;-70
2022/10/26 06:17:53;;;;;;;14.93;13.23;;;11.90;99.90;;;;;;5051891;28;20198;-72
2022/10/26 06:20:35;;;;;;;13.93;13.03;;;11.90;99.90;;;;;;5034813;28;20330;-72
2022/10/26 06:23:23;;;;;;;16.77;15.47;;;12.00;99.90;;;;;;5033221;28;20221;-71
2022/10/26 06:26:06;;;;;;;18.23;16.83;;;12.00;99.90;;;;;;5052089;28;20667;-71
2022/10/26 06:29:02;;;;;;;16.17;14.80;;;12.00;99.90;;;;;;5052093;28;20588;-71
2022/10/26 06:31:28;;;;;;;21.07;19.57;;;12.10;99.90;;;;;;5034600;28;20197;-71
2022/10/26 06:33:58;;;;;;;28.77;23.73;;;12.10;99.90;;;;;;5051844;28;20741;-71
2022/10/26 06:36:26;;;;;;;24.93;22.80;;;12.10;99.90;;;;;;5051972;28;20208;-71
2022/10/26 06:38:58;;;;;;;24.03;17.30;;;12.10;99.90;;;;;;5034015;28;20182;-71
2022/10/26 06:41:25;;;;;;;14.13;12.80;;;12.10;99.90;;;;;;5051943;28;20212;-72
2022/10/26 06:43:52;;;;;;;13.70;12.53;;;12.20;99.90;;;;;;5051922;28;20186;-70
2022/10/26 06:46:42;;;;;;;13.57;12.20;;;12.20;99.90;;;;;;5051753;28;20209;-70
2022/10/26 06:49:12;;;;;;;13.93;12.90;;;12.20;99.90;;;;;;5033887;28;20186;-70
2022/10/26 06:51:50;;;;;;;15.80;14.70;;;12.20;99.90;;;;;;5051794;28;20193;-70
2022/10/26 06:54:30;;;;;;;20.70;18.77;;;12.20;99.90;;;;;;5034268;28;20700;-67
2022/10/26 06:56:56;;;;;;;16.27;13.77;;;12.30;99.90;;;;;;5051510;28;20285;-67
2022/10/26 06:59:37;;;;;;;13.63;12.53;;;12.30;99.90;;;;;;5033743;28;20324;-68
2022/10/26 07:02:03;;;;;;;10.00;9.07;;;12.30;99.90;;;;;;5042123;28;20269;-70
2022/10/26 07:04:29;;;;;;;23.27;20.97;;;12.30;99.90;;;;;;5050286;28;20328;-70
2022/10/26 07:06:56;;;;;;;37.10;34.87;;;12.30;99.90;;;;;;5050709;28;20230;-71
2022/10/26 07:09:21;;;;;;;97.67;92.20;;;12.30;99.90;;;;;;5051109;28;20237;-70
2022/10/26 07:11:47;;;;;;;202.30;191.23;;;12.30;99.90;;;;;;5033229;28;20650;-71
2022/10/26 07:14:13;;;;;;;98.10;92.57;;;12.40;99.90;;;;;;5032246;28;20356;-70
2022/10/26 07:16:39;;;;;;;49.33;46.43;;;12.40;99.90;;;;;;5050934;28;20729;-70
2022/10/26 07:19:05;;;;;;;41.80;38.87;;;12.50;99.90;;;;;;5036350;28;20178;-70
2022/10/26 07:21:31;;;;;;;25.87;23.97;;;12.50;99.90;;;;;;5032312;28;20292;-71
2022/10/26 07:23:56;;;;;;;25.30;23.17;;;12.60;99.90;;;;;;5038581;28;20202;-70
2022/10/26 07:26:24;;;;;;;41.00;38.40;;;12.60;99.90;;;;;;5034398;28;20209;-70
2022/10/26 07:28:50;;;;;;;49.97;46.87;;;12.60;99.90;;;;;;5050724;28;20178;-70
2022/10/26 07:31:17;;;;;;;103.30;96.97;;;12.60;99.90;;;;;;5051239;28;20209;-70
2022/10/26 07:33:44;;;;;;;174.10;164.20;;;12.60;99.90;;;;;;5051093;28;20210;-69
2022/10/26 07:36:10;;;;;;;180.30;169.57;;;12.60;99.90;;;;;;5051055;28;20695;-70
2022/10/26 07:38:37;;;;;;;187.13;176.80;;;12.60;99.90;;;;;;5050454;28;20540;-71
2022/10/26 07:41:04;;;;;;;295.70;278.67;;;12.70;99.90;;;;;;5051073;28;20178;-70
2022/10/26 07:43:30;;;;;;;153.53;144.50;;;12.70;99.90;;;;;;5033151;28;20650;-70
2022/10/26 07:45:56;;;;;;;136.67;127.93;;;12.70;99.90;;;;;;5050326;28;20198;-70
2022/10/26 07:48:21;;;;;;;91.60;86.47;;;12.80;99.90;;;;;;5050713;28;20182;-71
2022/10/26 07:50:47;;;;;;;119.17;111.90;;;12.80;99.90;;;;;;5033340;28;20182;-70
2022/10/26 07:53:13;;;;;;;127.67;120.53;;;12.80;99.90;;;;;;5049470;28;20182;-70
2022/10/26 07:55:39;;;;;;;153.00;144.40;;;12.80;99.90;;;;;;5050842;28;20201;-70
2022/10/26 07:58:05;;;;;;;130.50;122.40;;;12.80;99.90;;;;;;5050223;28;20643;-70
2022/10/26 08:00:31;;;;;;;195.50;184.10;;;12.80;99.90;;;;;;5033009;28;20680;-70
2022/10/26 08:02:57;;;;;;;199.10;187.80;;;12.80;99.90;;;;;;5032679;28;20269;-71
2022/10/26 08:05:23;;;;;;;155.97;146.87;;;12.80;99.90;;;;;;5032614;28;20194;-70
2022/10/26 08:07:49;;;;;;;141.87;133.23;;;12.80;99.90;;;;;;5049057;28;20281;-73
2022/10/26 08:10:14;;;;;;;141.00;132.17;;;12.80;99.90;;;;;;5032820;28;20777;-70
2022/10/26 08:12:42;;;;;;;160.77;151.87;;;12.90;99.90;;;;;;5032915;28;20197;-68
2022/10/26 08:15:08;;;;;;;162.53;153.03;;;12.90;99.90;;;;;;5050491;28;20728;-67
2022/10/26 08:17:34;;;;;;;169.00;158.90;;;13.00;99.90;;;;;;5050027;28;20205;-67
2022/10/26 08:20:00;;;;;;;364.77;342.23;;;13.00;99.90;;;;;;5050515;28;20189;-67
2022/10/26 08:22:29;;;;;;;131.70;123.87;;;13.00;99.90;;;;;;5050569;28;20174;-68
2022/10/26 08:24:55;;;;;;;33.43;30.83;;;13.10;99.90;;;;;;5050533;28;20186;-67
2022/10/26 08:27:20;;;;;;;19.20;17.80;;;13.10;99.90;;;;;;5050008;28;20244;-67
2022/10/26 08:29:46;;;;;;;17.97;16.47;;;13.20;99.90;;;;;;5050737;28;20190;-67
2022/10/26 08:32:12;;;;;;;94.00;88.57;;;13.40;99.90;;;;;;5050388;28;20182;-67
2022/10/26 08:34:37;;;;;;;131.33;123.77;;;13.60;99.90;;;;;;5049859;28;20256;-68
2022/10/26 08:37:03;;;;;;;205.43;193.23;;;13.80;99.90;;;;;;5022450;28;20647;-67
2022/10/26 08:39:29;;;;;;;14.73;13.40;;;14.00;99.90;;;;;;5031534;28;20187;-67
2022/10/26 08:42:03;;;;;;;13.77;12.37;;;14.20;99.90;;;;;;5047360;28;20272;-67
2022/10/26 08:44:46;;;;;;;20.90;19.60;;;14.20;99.90;;;;;;5045667;28;20248;-68
2022/10/26 08:47:21;;;;;;;13.17;12.20;;;14.30;99.90;;;;;;5049698;28;20297;-67
2022/10/26 08:50:08;;;;;;;20.73;19.23;;;14.30;99.90;;;;;;5023360;28;20190;-66
2022/10/26 08:52:52;;;;;;;44.77;42.00;;;14.40;99.90;;;;;;5028978;28;20182;-66
2022/10/26 08:55:23;;;;;;;21.57;20.27;;;14.40;99.90;;;;;;5030222;28;20221;-66
2022/10/26 08:57:49;;;;;;;25.50;23.37;;;14.40;99.90;;;;;;5031627;28;20206;-67
2022/10/26 09:00:19;;;;;;;24.60;22.77;;;14.50;99.90;;;;;;5034034;28;20207;-66
2022/10/26 09:02:49;;;;;;;8.93;7.67;;;14.50;99.90;;;;;;5016326;28;20183;-65
2022/10/26 09:05:31;;;;;;;10.93;8.03;;;14.50;99.90;;;;;;5016252;28;20187;-66
2022/10/26 09:08:26;;;;;;;9.23;8.23;;;14.50;99.90;;;;;;5049349;28;20682;-66
2022/10/26 09:11:36;;;;;;;11.33;7.77;;;14.50;99.90;;;;;;5033367;28;20293;-66
2022/10/26 09:14:49;;;;;;;15.63;14.23;;;14.50;99.90;;;;;;4971780;28;20216;-67
2022/10/26 09:17:20;;;;;;;17.43;16.03;;;14.60;99.90;;;;;;4940016;28;20213;-68
2022/10/26 09:20:04;;;;;;;15.27;9.50;;;14.80;99.90;;;;;;5025089;28;20278;-66
2022/10/26 09:22:56;;;;;;;9.33;8.40;;;14.90;99.90;;;;;;5053255;28;20177;-66
2022/10/26 09:25:25;;;;;;;12.43;11.13;;;15.10;99.90;;;;;;5053331;28;20682;-67
2022/10/26 09:28:00;;;;;;;41.53;38.73;;;15.30;99.90;;;;;;5034751;28;20222;-67
2022/10/26 09:30:26;;;;;;;63.93;60.23;;;15.50;99.90;;;;;;5053214;28;20190;-67
2022/10/26 09:32:58;;;;;;;111.80;105.77;;;15.70;99.90;;;;;;5053690;28;20178;-66
2022/10/26 09:35:49;;;;;;;144.43;136.43;;;15.80;99.90;;;;;;5052396;28;20202;-66
2022/10/26 09:38:36;;;;;;;47.90;44.30;;;16.00;99.90;;;;;;5051975;28;20254;-67
2022/10/26 09:41:08;;;;;;;37.40;34.80;;;16.40;99.90;;;;;;5053337;28;20186;-66
2022/10/26 09:43:45;;;;;;;15.93;13.67;;;16.80;99.90;;;;;;5052755;28;20186;-68
2022/10/26 09:46:20;;;;;;;23.13;21.57;;;17.30;99.90;;;;;;5051858;28;20203;-67
2022/10/26 09:48:52;;;;;;;15.10;13.70;;;17.80;99.90;;;;;;5052110;28;20185;-70
2022/10/26 09:51:18;;;;;;;22.23;20.70;;;18.10;99.90;;;;;;5053374;28;20574;-69
2022/10/26 09:53:45;;;;;;;56.67;53.27;;;18.20;99.90;;;;;;5053038;28;20221;-70
2022/10/26 09:56:15;;;;;;;37.00;34.87;;;18.50;99.90;;;;;;5035416;28;20210;-70
2022/10/26 09:58:45;;;;;;;28.43;26.67;;;19.40;99.90;;;;;;5052617;28;20186;-70
2022/10/26 10:01:40;;;;;;;45.03;42.63;;;19.80;99.90;;;;;;5052794;28;20189;-70
2022/10/26 10:04:12;;;;;;;28.63;26.80;;;20.20;99.90;;;;;;5039946;28;20197;-70
2022/10/26 10:06:42;;;;;;;30.00;27.93;;;21.10;99.90;;;;;;5052932;28;20572;-69
2022/10/26 10:09:28;;;;;;;17.87;16.53;;;22.20;99.90;;;;;;5052105;28;20220;-70
2022/10/26 10:11:57;;;;;;;9.13;8.23;;;22.80;99.90;;;;;;5052863;28;20192;-70
2022/10/26 10:14:25;;;;;;;7.53;6.80;;;23.60;99.90;;;;;;5052689;28;20335;-70
2022/10/26 10:17:03;;;;;;;7.43;6.40;;;24.20;99.90;;;;;;5051658;28;20740;-70
2022/10/26 10:19:34;;;;;;;27.05;25.55;;;24.60;99.90;;;;;;5052708;28;20196;-70
2022/10/26 10:22:11;;;;;;;18.23;17.00;;;25.20;99.90;;;;;;5052746;28;20236;-67
2022/10/26 10:24:41;;;;;;;18.70;17.23;;;25.50;99.90;;;;;;5042226;28;20178;-67
2022/10/26 10:27:15;;;;;;;12.13;11.32;;;25.60;99.90;;;;;;5033974;28;20221;-67
2022/10/26 10:29:44;;;;;;;16.83;15.68;;;25.50;99.90;;;;;;5040157;28;20196;-68
2022/10/26 10:32:15;;;;;;;17.98;16.48;;;25.10;99.90;;;;;;5051930;28;20532;-68
2022/10/26 10:34:42;;;;;;;21.17;19.65;;;24.30;99.90;;;;;;5052473;28;20221;-68
2022/10/26 10:37:29;;;;;;;22.55;21.00;;;24.10;99.90;;;;;;5051966;28;20202;-67
2022/10/26 10:40:00;;;;;;;27.50;25.92;;;23.70;99.90;;;;;;5052021;28;20178;-68
2022/10/26 10:42:31;;;;;;;27.35;25.15;;;23.60;99.90;;;;;;5052312;28;20188;-68
2022/10/26 10:44:58;;;;;;;34.50;32.20;;;23.20;99.90;;;;;;5051714;28;20232;-68
2022/10/26 10:47:28;;;;;;;28.48;26.50;;;23.40;99.90;;;;;;5051423;28;20560;-67
2022/10/26 10:50:01;;;;;;;34.88;32.88;;;23.40;99.90;;;;;;5033844;28;20916;-68
2022/10/26 10:52:32;;;;;;;32.00;30.30;;;23.20;99.90;;;;;;5051932;28;20233;-68
2022/10/26 10:55:13;;;;;;;33.60;31.65;;;22.90;99.90;;;;;;5051603;28;20210;-68
2022/10/26 10:58:03;;;;;;;30.77;29.15;;;22.70;99.90;;;;;;5051056;28;20194;-66
2022/10/26 11:00:33;;;;;;;37.03;34.83;;;22.70;99.90;;;;;;5051319;28;20716;-67
2022/10/26 11:03:15;;;;;;;38.58;36.25;;;23.70;99.90;;;;;;5033703;28;20190;-67
2022/10/26 11:05:59;;;;;;;36.53;34.53;;;25.40;99.90;;;;;;5051479;28;20193;-67
2022/10/26 11:08:35;;;;;;;59.30;56.13;;;25.60;99.90;;;;;;5051006;28;20559;-67
2022/10/26 11:11:10;;;;;;;16.10;14.93;;;26.00;99.90;;;;;;5051073;28;20231;-67
2022/10/26 11:14:01;;;;;;;26.08;24.55;;;26.20;99.90;;;;;;5051261;28;20563;-70
2022/10/26 11:16:35;;;;;;;13.00;11.98;;;26.30;99.90;;;;;;5044166;28;20224;-69
2022/10/26 11:19:23;;;;;;;15.02;13.23;;;25.90;99.90;;;;;;5033372;28;20637;-69
2022/10/26 11:21:53;;;;;;;16.85;15.60;;;25.00;99.90;;;;;;5050292;28;20174;-69
2022/10/26 11:24:19;;;;;;;14.80;13.65;;;24.30;99.90;;;;;;5050423;28;20198;-67
2022/10/26 11:27:03;;;;;;;23.35;22.05;;;23.80;99.90;;;;;;5050860;28;20217;-66
2022/10/26 11:29:50;;;;;;;53.92;50.85;;;23.80;99.90;;;;;;5050382;28;20189;-66
2022/10/26 11:32:33;;;;;;;31.52;29.73;;;24.30;99.90;;;;;;5050792;28;20269;-67
2022/10/26 11:35:27;;;;;;;46.40;43.67;;;24.30;99.90;;;;;;5050595;28;20305;-67
2022/10/26 11:38:20;;;;;;;27.45;25.80;;;24.80;99.90;;;;;;5049823;28;20206;-68
2022/10/26 11:41:00;;;;;;;12.38;11.23;;;26.40;99.90;;;;;;5043799;28;20231;-67
2022/10/26 11:43:43;;;;;;;14.55;6.82;;;26.80;99.90;;;;;;5050911;28;20178;-68
2022/10/26 11:46:24;;;;;;;7.00;6.13;;;26.00;99.90;;;;;;5032341;28;20593;-67
2022/10/26 11:49:13;;;;;;;7.45;6.72;;;25.20;99.90;;;;;;5032515;28;20190;-68
2022/10/26 11:51:51;;;;;;;10.98;9.88;;;24.70;99.90;;;;;;5012554;28;20201;-67
2022/10/26 11:54:33;;;;;;;11.13;10.10;;;24.10;99.90;;;;;;5029842;28;20210;-67
2022/10/26 11:57:00;;;;;;;22.75;21.05;;;23.60;99.90;;;;;;5030505;28;20210;-68
2022/10/26 11:59:30;;;;;;;21.58;20.15;;;23.20;99.90;;;;;;5030519;28;20186;-68
2022/10/26 12:02:10;;;;;;;18.15;16.58;;;23.20;99.90;;;;;;5030687;28;20182;-67
2022/10/26 12:04:37;;;;;;;19.77;17.90;;;23.30;99.90;;;;;;5013711;28;20260;-67
2022/10/26 12:07:12;;;;;;;21.60;20.23;;;23.90;99.90;;;;;;5043882;28;20194;-67
2022/10/26 12:09:41;;;;;;;23.88;22.42;;;24.50;99.90;;;;;;5032748;28;20223;-67
2022/10/26 12:12:22;;;;;;;19.38;17.88;;;24.80;99.90;;;;;;5050768;28;20182;-73
2022/10/26 12:14:56;;;;;;;6.43;5.60;;;25.90;99.90;;;;;;5050662;28;20225;-73
2022/10/26 12:17:37;;;;;;;6.90;3.90;;;27.00;99.90;;;;;;5050237;28;20202;-73
2022/10/26 12:20:06;;;;;;;6.03;3.92;;;26.10;99.90;;;;;;5032735;28;20201;-73
2022/10/26 12:22:36;;;;;;;4.55;4.15;;;25.40;99.90;;;;;;5032990;28;20182;-73
2022/10/26 12:25:14;;;;;;;6.95;4.15;;;24.90;99.90;;;;;;5050282;28;20227;-73
2022/10/26 12:27:39;;;;;;;5.13;4.22;;;24.80;99.90;;;;;;5050115;28;20778;-73
2022/10/26 12:30:14;;;;;;;7.72;4.38;;;24.80;99.90;;;;;;5050452;28;20266;-72
2022/10/26 12:32:40;;;;;;;9.52;6.90;;;24.60;99.90;;;;;;5034087;28;20230;-72
2022/10/26 12:35:31;;;;;;;6.30;4.53;;;26.00;99.90;;;;;;5034854;28;20210;-73
2022/10/26 12:37:57;;;;;;;9.18;4.75;;;27.70;99.90;;;;;;5053751;28;20276;-73
2022/10/26 12:40:32;;;;;;;5.63;4.93;;;28.50;99.90;;;;;;5054204;28;20179;-73
2022/10/26 12:43:23;;;;;;;10.48;5.07;;;27.20;99.90;;;;;;5054486;28;20597;-73
2022/10/26 12:46:31;;;;;;;8.70;4.05;;;25.80;99.90;;;;;;5054529;28;20279;-72
2022/10/26 12:48:58;;;;;;;7.72;4.97;;;24.90;99.90;;;;;;5053405;28;20636;-73
2022/10/26 12:51:24;;;;;;;10.75;4.15;;;24.30;99.90;;;;;;5054528;28;20554;-73